Latest Weather Observations for Horsley Park

IDN60801

Issued at 4:34 pm EST Sunday 24 May 2015 (issued every 30 minutes, with the page automatically refreshed every 10 minutes)

About weather observations | Map of weather stations | Latest weather observations for NSW | Other Formats
Station Details ID: 067119 Name: HORSLEY PARK EQUESTRIAN CENTRE AWS Lat: -33.85 Lon: 150.86 Height: 100.0 m
Data from the previous 72 hours. | See also: Recent months at Horsley Park
Date/Time
EST
Temp
°C
App
Temp
°C
Dew
Point
Rel
Hum
%
Delta-T
°C
Wind Press
QNH
hPa
Press
MSL
hPa
Rain
since 9 am
mm
Dir
 
Spd
km/h
Gust
km/h
Spd
kts
Gust
kts
24/04:30pm 15.6 14.7 6.1 53 4.6 CALM 0 0 0 0 - - 0.0
24/04:00pm 16.8 15.8 5.7 48 5.4 CALM 0 0 0 0 - - 0.0
24/03:30pm 18.0 16.9 4.9 42 6.3 CALM 0 0 0 0 - - 0.0
24/03:00pm 18.3 17.0 4.1 39 6.8 CALM 0 0 0 0 - - 0.0
24/02:30pm 18.7 17.5 4.8 40 6.7 CALM 0 2 0 1 - - 0.0
24/02:00pm 18.3 16.2 4.1 39 6.8 NNW 4 7 2 4 - - 0.0
24/01:30pm 17.8 15.8 4.4 41 6.4 WSW 4 6 2 3 - - 0.0
24/01:00pm 18.4 16.7 5.9 44 6.2 NNE 4 15 2 8 - - 0.0
24/12:30pm 17.3 16.1 6.5 49 5.3 W 2 4 1 2 - - 0.0
24/12:00pm 16.0 13.9 5.6 50 5.0 WSW 6 7 3 4 - - 0.0
24/11:30am 15.7 14.2 6.7 55 4.4 WSW 4 9 2 5 - - 0.0
24/11:00am 14.8 13.0 7.1 60 3.8 WSW 6 9 3 5 - - 0.0
24/10:30am 13.8 12.4 7.3 65 3.2 WSW 4 7 2 4 - - 0.0
24/10:00am 12.7 10.0 7.4 70 2.6 SW 11 15 6 8 - - 0.0
24/09:30am 11.8 9.4 7.1 73 2.3 WSW 9 13 5 7 - - 0.0
24/09:00am 10.3 7.8 6.5 77 1.8 WSW 9 13 5 7 - - 0.2
24/08:30am 9.4 6.8 6.1 80 1.5 W 9 13 5 7 - - 0.2
24/08:00am 8.5 5.9 6.0 84 1.1 WSW 9 13 5 7 - - 0.2
24/07:30am 7.8 5.2 5.9 88 0.9 WSW 9 17 5 9 - - 0.2
24/07:00am 7.2 4.9 5.7 90 0.7 WSW 7 15 4 8 - - 0.2
24/06:30am 7.5 4.1 6.1 91 0.6 WSW 13 17 7 9 - - 0.2
24/06:00am 7.4 4.4 6.0 91 0.6 WSW 11 17 6 9 - - 0.2
24/05:30am 7.4 4.0 5.9 90 0.7 WSW 13 17 7 9 - - 0.2
24/05:00am 7.6 4.2 6.1 90 0.7 WSW 13 17 7 9 - - 0.2
24/04:30am 7.5 4.1 5.8 89 0.8 SW 13 19 7 10 - - 0.2
24/04:00am 7.7 4.3 6.0 89 0.8 WSW 13 17 7 9 - - 0.2
24/03:30am 7.5 4.5 5.8 89 0.8 WSW 11 17 6 9 - - 0.2
24/03:00am 7.5 4.8 5.6 88 0.9 WSW 9 15 5 8 - - 0.2
24/02:30am 7.9 5.3 5.9 87 0.9 WSW 9 13 5 7 - - 0.2
24/02:00am 7.9 5.9 6.2 89 0.8 WSW 6 13 3 7 - - 0.2
24/01:30am 7.2 5.4 5.2 87 0.9 W 4 7 2 4 - - 0.2
24/01:00am 8.5 6.4 5.8 83 1.2 WSW 6 11 3 6 - - 0.2
24/12:30am 9.0 6.1 6.4 84 1.2 SW 11 17 6 9 - - 0.2
24/12:00am 9.2 6.7 6.5 83 1.3 WSW 9 13 5 7 - - 0.2
 
Date/Time
EST
Temp
°C
App
Temp
°C
Dew
Point
Rel
Hum
%
Delta-T
°C
Wind Press
QNH
hPa
Press
MSL
hPa
Rain
since 9 am
mm
Dir
 
Spd
km/h
Gust
km/h
Spd
kts
Gust
kts
23/11:30pm 9.3 7.2 6.6 83 1.3 WSW 7 11 4 6 - - 0.2
23/11:00pm 9.3 7.3 6.9 85 1.1 WSW 7 11 4 6 - - 0.2
23/10:30pm 8.9 7.3 6.5 85 1.1 WSW 4 7 2 4 - - 0.2
23/10:00pm 9.7 7.8 6.8 82 1.4 WSW 6 9 3 5 - - 0.2
23/09:30pm 9.9 8.0 6.8 81 1.5 SW 6 7 3 4 - - 0.2
23/09:00pm 10.0 8.5 6.9 81 1.5 WSW 4 7 2 4 - - 0.2
23/08:30pm 10.0 8.1 6.7 80 1.6 WSW 6 7 3 4 - - 0.2
23/08:00pm 10.6 9.5 6.7 77 1.8 WSW 2 6 1 3 - - 0.2
23/07:30pm 11.9 9.8 6.8 71 2.4 SSE 7 9 4 5 - - 0.2
23/07:00pm 11.6 9.5 6.7 72 2.3 SSE 7 11 4 6 - - 0.2
23/06:30pm 12.1 10.1 7.0 71 2.5 SSE 7 9 4 5 - - 0.2
23/06:00pm 12.4 10.5 6.7 68 2.7 SE 6 7 3 4 - - 0.2
23/05:30pm 13.0 10.9 6.6 65 3.1 SSE 7 11 4 6 - - 0.2
23/05:00pm 14.0 11.8 6.4 60 3.7 SSE 7 13 4 7 - - 0.2
23/04:30pm 15.2 12.2 6.2 55 4.4 SE 11 15 6 8 - - 0.2
23/04:00pm 16.3 14.3 6.4 52 4.9 SSE 6 9 3 5 - - 0.2
23/03:30pm 17.0 14.6 6.8 51 5.1 SSE 9 13 5 7 - - 0.2
23/03:00pm 16.9 14.7 6.4 50 5.2 S 7 11 4 6 - - 0.2
23/02:30pm 17.4 14.3 7.2 51 5.1 SSE 13 19 7 10 - - 0.2
23/02:00pm 16.2 13.4 6.9 54 4.6 S 11 17 6 9 - - 0.2
23/01:30pm 17.8 15.1 7.2 50 5.3 SW 11 17 6 9 - - 0.2
23/01:00pm 17.5 14.8 7.3 51 5.1 SSW 11 20 6 11 - - 0.0
23/12:30pm 17.2 14.0 7.0 51 5.1 SSW 13 24 7 13 - - 0.0
23/12:00pm 16.6 13.1 7.0 53 4.8 S 15 26 8 14 - - 0.0
23/11:30am 16.6 12.8 7.5 55 4.6 SW 17 26 9 14 - - 0.0
23/11:00am 16.3 12.8 7.3 55 4.5 SW 15 26 8 14 - - 0.0
23/10:30am 15.4 11.8 6.9 57 4.2 SW 15 22 8 12 - - 0.0
23/10:00am 14.6 10.2 6.4 58 4.0 SW 19 28 10 15 - - 0.0
23/09:30am 14.0 9.9 6.4 60 3.7 SW 17 24 9 13 - - 0.0
23/09:00am 12.9 8.8 6.3 64 3.2 SW 17 28 9 15 - - 11.2
23/08:30am 11.6 7.4 5.5 66 2.8 SW 17 26 9 14 - - 11.2
23/08:00am 11.2 7.3 5.3 67 2.7 SW 15 24 8 13 - - 11.2
23/07:30am 11.1 6.4 5.2 67 2.7 SW 19 26 10 14 - - 11.2
23/07:00am 10.9 6.0 5.2 68 2.6 SW 20 32 11 17 - - 11.2
23/06:30am 10.6 6.8 5.6 71 2.3 SW 15 22 8 12 - - 11.2
23/06:00am 10.5 6.2 5.3 70 2.4 SW 17 26 9 14 - - 11.2
23/05:30am 10.5 5.7 5.7 72 2.2 SW 20 28 11 15 - - 11.2
23/05:00am 10.2 6.4 5.8 74 2.0 SW 15 20 8 11 - - 11.2
23/04:30am 10.4 6.3 6.0 74 2.0 SW 17 28 9 15 - - 11.2
23/04:00am 10.6 6.9 6.4 75 2.0 SW 15 22 8 12 - - 11.2
23/03:30am 11.0 7.8 6.7 75 2.0 SW 13 19 7 10 - - 11.2
23/03:00am 11.6 8.3 7.9 78 1.8 SW 15 22 8 12 - - 11.2
23/02:30am 11.5 9.1 8.7 83 1.4 SW 11 15 6 8 - - 11.2
23/02:00am 11.0 9.2 9.6 91 0.7 SW 9 13 5 7 - - 11.2
23/01:30am 11.0 8.5 9.6 91 0.7 SW 13 19 7 10 - - 11.0
23/01:00am 11.6 9.0 9.3 86 1.2 SW 13 19 7 10 - - 11.0
23/12:30am 11.5 8.5 9.4 87 1.1 SW 15 20 8 11 - - 11.0
23/12:00am 11.6 8.5 9.0 84 1.3 SW 15 22 8 12 - - 11.0
 
Date/Time
EST
Temp
°C
App
Temp
°C
Dew
Point
Rel
Hum
%
Delta-T
°C
Wind Press
QNH
hPa
Press
MSL
hPa
Rain
since 9 am
mm
Dir
 
Spd
km/h
Gust
km/h
Spd
kts
Gust
kts
22/11:30pm 11.4 8.6 8.6 83 1.4 SW 13 20 7 11 - - 11.0
22/11:00pm 11.5 8.7 8.7 83 1.4 SW 13 19 7 10 - - 11.0
22/10:30pm 11.8 9.8 8.6 81 1.6 WSW 9 15 5 8 - - 11.0
22/10:00pm 11.8 9.4 8.8 82 1.5 SW 11 15 6 8 - - 11.0
22/09:30pm 11.3 9.5 9.4 88 1.0 SW 9 15 5 8 - - 11.0
22/09:00pm 11.6 9.8 9.5 87 1.1 SW 9 13 5 7 - - 11.0
22/08:30pm 11.3 8.8 9.7 90 0.8 SW 13 17 7 9 - - 10.8
22/08:00pm 11.1 8.2 9.7 91 0.7 SW 15 24 8 13 - - 10.8
22/07:30pm 11.7 8.4 9.4 86 1.2 SW 17 24 9 13 - - 10.6
22/07:00pm 11.9 8.9 9.3 84 1.3 WSW 15 22 8 12 - - 10.6
22/06:30pm 12.4 10.6 9.6 83 1.4 SW 9 17 5 9 - - 10.6
22/06:00pm 12.6 9.3 9.4 81 1.6 SSW 17 26 9 14 - - 10.6
22/05:30pm 12.4 8.8 10.0 85 1.2 SSW 19 30 10 16 - - 10.6
22/05:00pm 12.4 9.2 10.1 86 1.2 SW 17 28 9 15 - - 10.6
22/04:30pm 12.7 9.6 10.2 85 1.3 SSW 17 33 9 18 - - 10.2
22/04:00pm 13.5 9.2 9.4 76 2.1 SSW 22 33 12 18 - - 10.2
22/03:30pm 14.3 10.4 9.5 73 2.5 SSW 20 30 11 16 - - 10.2
22/03:00pm 15.2 9.1 8.2 63 3.5 SSW 30 43 16 23 - - 10.2
22/02:30pm 15.8 10.1 8.3 61 3.8 S 28 44 15 24 - - 10.2
22/02:05pm 15.1 9.6 9.2 68 3.0 SSW 28 46 15 25 - - 10.2
22/02:00pm 14.9 9.9 9.7 71 2.7 SSW 26 39 14 21 - - 10.2
22/01:38pm 15.2 9.7 9.3 68 3.0 SSW 28 48 15 26 - - 10.2
22/01:30pm 15.2 10.5 9.3 68 3.0 SSW 24 39 13 21 - - 10.2
22/01:00pm 15.8 11.5 10.6 71 2.8 SSW 24 41 13 22 - - 10.2
22/12:30pm 14.5 11.7 11.3 81 1.7 SSW 17 32 9 17 - - 10.2
22/12:00pm 13.5 8.6 11.4 87 1.1 SSW 28 44 15 24 - - 10.2
22/11:45am 13.4 8.2 11.5 88 1.0 SSW 30 54 16 29 - - 10.2
22/11:30am 13.9 10.9 12.5 91 0.8 S 20 33 11 18 - - 10.0
22/11:00am 13.3 11.7 12.7 96 0.3 SW 13 20 7 11 - - 9.2
22/10:30am 12.8 10.6 12.0 95 0.4 SW 15 22 8 12 - - 8.4
22/10:00am 12.8 10.5 11.9 94 0.5 SW 15 20 8 11 - - 4.0
22/09:30am 13.1 10.5 12.0 93 0.6 SW 17 26 9 14 - - 0.6
22/09:00am 12.7 10.7 11.4 92 0.7 SW 13 20 7 11 - - 3.4
22/08:30am 12.6 9.7 11.0 90 0.8 SW 17 22 9 12 - - 2.8
22/08:00am 12.2 9.9 10.4 89 0.9 SW 13 22 7 12 - - 2.0
22/07:30am 13.0 9.7 9.4 79 1.8 SW 17 24 9 13 - - 0.4
22/07:00am 13.4 10.8 9.3 76 2.1 SW 13 24 7 13 - - 0.4
22/06:30am 13.1 10.9 9.2 77 2.0 SW 11 17 6 9 - - 0.2
22/06:00am 13.4 10.7 8.9 74 2.3 WSW 13 19 7 10 - - 0.2
22/05:30am 13.3 9.8 8.8 74 2.3 SW 17 26 9 14 - - 0.2
22/05:00am 13.5 10.0 8.6 72 2.5 SW 17 24 9 13 - - 0.2
22/04:30am 13.3 10.1 8.4 72 2.5 SW 15 32 8 17 - - 0.2
22/04:00am 13.1 10.6 8.2 72 2.4 WSW 11 17 6 9 - - 0.2
22/03:30am 13.0 10.1 8.1 72 2.4 SW 13 20 7 11 - - 0.2
22/03:00am 12.9 10.4 8.0 72 2.4 WSW 11 17 6 9 - - 0.2
22/02:30am 12.8 10.2 7.9 72 2.4 SW 11 19 6 10 - - 0.2
22/02:00am 12.5 10.7 7.8 73 2.3 WSW 7 15 4 8 - - 0.2
22/01:30am 12.6 10.4 7.9 73 2.3 WSW 9 15 5 8 - - 0.2
22/01:00am 12.9 10.4 8.2 73 2.3 SW 11 15 6 8 - - 0.2
22/12:30am 13.1 10.7 8.6 74 2.3 SW 11 17 6 9 - - 0.2
22/12:00am 12.5 10.6 9.0 79 1.8 SW 9 15 5 8 - - 0.2
 
Date/Time
EST
Temp
°C
App
Temp
°C
Dew
Point
Rel
Hum
%
Delta-T
°C
Wind Press
QNH
hPa
Press
MSL
hPa
Rain
since 9 am
mm
Dir
 
Spd
km/h
Gust
km/h
Spd
kts
Gust
kts
21/11:30pm 12.6 11.1 9.1 79 1.8 WSW 7 11 4 6 - - 0.2
21/11:00pm 12.9 11.1 9.4 79 1.8 WSW 9 13 5 7 - - 0.2
21/10:30pm 13.2 11.0 9.5 78 1.9 WSW 11 17 6 9 - - 0.2
21/10:00pm 13.7 11.3 9.9 78 2.0 SW 13 19 7 10 - - 0.2
21/09:30pm 14.0 12.4 10.2 78 2.0 SW 9 17 5 9 - - 0.2
21/09:00pm 14.2 11.9 10.6 79 1.9 SSW 13 22 7 12 - - 0.2
21/08:30pm 14.3 12.5 10.7 79 1.9 SSW 11 17 6 9 - - 0.2
21/08:00pm 14.1 12.3 10.7 80 1.8 SSW 11 15 6 8 - - 0.2
21/07:30pm 14.2 12.7 10.6 79 1.9 S 9 17 5 9 - - 0.2
21/07:00pm 14.7 12.9 10.9 78 2.0 S 11 19 6 10 - - 0.2
21/06:30pm 15.0 14.1 11.4 79 1.9 S 7 11 4 6 - - 0.2
21/06:00pm 15.1 14.5 11.7 80 1.8 S 6 11 3 6 - - 0.2
21/05:30pm 14.7 14.1 11.7 82 1.6 SSE 6 9 3 5 - - 0.2
21/05:00pm 14.8 14.0 11.0 78 2.0 SSE 6 9 3 5 - - 0.2

Other Formats:

Comma delimited format used in spreadsheet applications
http://www.bom.gov.au/fwo/IDN60801/IDN60801.94760.axf

JavaScript Object Notation format (JSON) in row-major order
http://www.bom.gov.au/fwo/IDN60801/IDN60801.94760.json